Time;durP1;ratioP1;P1;durP2;ratioP2;P2;SDS_P1;SDS_P2;PMS_P1;PMS_P2;Temp;Humidity;BMP_temperature;BMP_pressure;BME280_temperature;BME280_humidity;BME280_pressure;Samples;Min_cycle;Max_cycle;Signal;HPM_P1;HPM_P2
2023/05/18 00:00:52;;;;;;;;;;;7.20;95.80;;;;;;5075843;28;19935;-84
2023/05/18 00:03:23;;;;;;;;;;;7.20;95.90;;;;;;5077306;28;19959;-84
2023/05/18 00:05:50;;;;;;;;;;;6.70;96.30;;;;;;5058763;28;19925;-83
2023/05/18 00:08:18;;;;;;;;;;;7.20;95.90;;;;;;5085032;28;19951;-84
2023/05/18 00:10:48;;;;;;;;;;;7.10;97.10;;;;;;5092412;28;19963;-83
2023/05/18 00:13:14;;;;;;;;;;;7.20;96.30;;;;;;5093372;28;19936;-83
2023/05/18 00:15:41;;;;;;;;;;;7.20;96.30;;;;;;5089417;28;19936;-83
2023/05/18 00:18:09;;;;;;;;;;;7.10;96.40;;;;;;5088013;28;19913;-82
2023/05/18 00:20:37;;;;;;;;;;;7.10;96.50;;;;;;5088347;28;19975;-83
2023/05/18 00:23:05;;;;;;;;;;;7.10;96.70;;;;;;5081409;28;19988;-82
2023/05/18 00:25:32;;;;;;;;;;;;;;;;;;5084740;28;20358;-83
2023/05/18 00:27:58;;;;;;;;;;;7.10;97.10;;;;;;5074644;28;20371;-83
2023/05/18 00:30:25;;;;;;;;;;;7.00;97.20;;;;;;5082079;28;19946;-84
2023/05/18 00:32:52;;;;;;;;;;;7.10;97.00;;;;;;5072134;28;20026;-84
2023/05/18 00:35:21;;;;;;;;;;;7.00;97.30;;;;;;5084231;28;20393;-83
2023/05/18 00:37:49;;;;;;;;;;;7.00;97.60;;;;;;5079334;28;19928;-83
2023/05/18 00:40:16;;;;;;;;;;;;;;;;;;5085305;28;19928;-84
2023/05/18 00:42:43;;;;;;;;;;;7.30;98.00;;;;;;5070287;28;19929;-82
2023/05/18 00:45:10;;;;;;;;;;;;;;;;;;5071709;28;19932;-83
2023/05/18 00:47:43;;;;;;;;;;;;;;;;;;5073414;28;19932;-84
2023/05/18 00:50:11;;;;;;;;;;;;;;;;;;5073467;28;19932;-81
2023/05/18 00:52:38;;;;;;;;;;;6.70;98.10;;;;;;5076995;28;19928;-82
2023/05/18 00:55:05;;;;;;;;;;;;;;;;;;5072086;28;19929;-82
2023/05/18 00:57:33;;;;;;;;;;;;;;;;;;5072168;28;19932;-82
2023/05/18 01:00:00;;;;;;;;;;;;;;;;;;5073847;28;20367;-82
2023/05/18 01:02:29;;;;;;;;;;;;;;;;;;5075502;28;20283;-82
2023/05/18 01:04:56;;;;;;;;;;;;;;;;;;5068753;28;19928;-82
2023/05/18 01:07:25;;;;;;;;;;;;;;;;;;5069609;28;19951;-82
2023/05/18 01:09:52;;;;;;;;;;;;;;;;;;5068519;28;20524;-82
2023/05/18 01:12:19;;;;;;;;;;;;;;;;;;5098630;28;19977;-82
2023/05/18 01:14:49;;;;;;;;;;;6.40;99.00;;;;;;5110529;28;19928;-82
2023/05/18 01:17:16;;;;;;;;;;;;;;;;;;5105966;28;19928;-80
2023/05/18 01:19:55;;;;;;;;;;;6.30;99.20;;;;;;5100695;28;19924;-81
2023/05/18 01:22:22;;;;;;;;;;;;;;;;;;5097888;28;19924;-82
2023/05/18 01:24:54;;;;;;;;;;;;;;;;;;5102599;28;19947;-84
2023/05/18 01:27:23;;;;;;;;;;;;;;;;;;5102946;28;19928;-84
2023/05/18 01:29:51;;;;;;;;;;;6.10;99.60;;;;;;5093999;28;19925;-83
2023/05/18 01:32:21;;;;;;;;;;;;;;;;;;5082445;28;19932;-86
2023/05/18 01:34:48;;;;;;;;;;;;;;;;;;5078094;28;19935;-85
2023/05/18 01:37:14;;;;;;;;;;;6.10;99.90;;;;;;5078914;28;19931;-84
2023/05/18 01:39:43;;;;;;;;;;;;;;;;;;5085962;28;19939;-84
2023/05/18 01:42:10;;;;;;;;;;;;;;;;;;5096220;28;19928;-85
2023/05/18 01:44:40;;;;;;;;;;;6.00;99.90;;;;;;5098053;28;19993;-83
2023/05/18 01:47:07;;;;;;;;;;;;;;;;;;5096747;28;19924;-83
2023/05/18 01:49:34;;;;;;;;;;;;;;;;;;5080445;28;20022;-83
2023/05/18 01:52:03;;;;;;;;;;;6.00;99.90;;;;;;5064571;28;19925;-86
2023/05/18 01:54:30;;;;;;;;;;;;;;;;;;5075357;28;20367;-84
2023/05/18 01:56:58;;;;;;;;;;;5.90;99.90;;;;;;5076318;28;19928;-83
2023/05/18 01:59:25;;;;;;;;;;;;;;;;;;5073362;28;19924;-82
2023/05/18 02:01:54;;;;;;;;;;;;;;;;;;5073527;28;19929;-82
2023/05/18 02:04:21;;;;;;;;;;;;;;;;;;5074622;28;19931;-84
2023/05/18 02:06:48;;;;;;;;;;;;;;;;;;5078551;28;20408;-83
2023/05/18 02:09:15;;;;;;;;;;;;;;;;;;5092036;28;19924;-83
2023/05/18 02:11:45;;;;;;;;;;;5.70;99.90;;;;;;5092625;28;19924;-83
2023/05/18 02:14:12;;;;;;;;;;;4.40;99.90;;;;;;5074318;28;19924;-83
2023/05/18 02:16:39;;;;;;;;;;;;;;;;;;5073875;28;19978;-84
2023/05/18 02:19:06;;;;;;;;;;;5.80;99.90;;;;;;5074044;28;19936;-83
2023/05/18 02:21:34;;;;;;;;;;;5.60;99.90;;;;;;5074066;28;19935;-83
2023/05/18 02:24:02;;;;;;;;;;;;;;;;;;5092776;28;20297;-81
2023/05/18 02:26:29;;;;;;;;;;;5.70;99.90;;;;;;5082852;28;19924;-84
2023/05/18 02:28:58;;;;;;;;;;;5.60;99.90;;;;;;5068428;28;19932;-83
2023/05/18 02:31:28;;;;;;;;;;;5.60;99.90;;;;;;5080365;28;19943;-83
2023/05/18 02:33:54;;;;;;;;;;;5.60;99.90;;;;;;5083415;28;19947;-82
2023/05/18 02:36:22;;;;;;;;;;;5.60;99.90;;;;;;5074597;28;19936;-84
2023/05/18 02:38:49;;;;;;;;;;;5.70;99.90;;;;;;5092875;28;19951;-83
2023/05/18 02:41:15;;;;;;;;;;;5.70;99.90;;;;;;5092458;28;20003;-84
2023/05/18 02:43:42;;;;;;;;;;;5.60;99.90;;;;;;5095042;28;20631;-84
2023/05/18 02:46:10;;;;;;;;;;;5.60;99.90;;;;;;5097058;28;19935;-82
2023/05/18 02:48:37;;;;;;;;;;;6.40;99.90;;;;;;5086661;28;19924;-82
2023/05/18 02:51:04;;;;;;;;;;;5.50;99.90;;;;;;5078557;28;19971;-84
2023/05/18 02:53:32;;;;;;;;;;;4.80;99.90;;;;;;5071631;28;19939;-81
2023/05/18 02:56:05;;;;;;;;;;;5.50;99.90;;;;;;5072185;28;19929;-82
2023/05/18 02:58:42;;;;;;;;;;;5.60;99.90;;;;;;5070930;28;19925;-82
2023/05/18 03:01:17;;;;;;;;;;;5.50;99.90;;;;;;5073581;28;19939;-83
2023/05/18 03:03:50;;;;;;;;;;;5.50;99.90;;;;;;5070994;28;20007;-82
2023/05/18 03:06:17;;;;;;;;;;;5.50;99.90;;;;;;5070975;28;20019;-82
2023/05/18 03:08:47;;;;;;;;;;;5.50;99.90;;;;;;5089026;28;20401;-82
2023/05/18 03:11:14;;;;;;;;;;;5.50;99.90;;;;;;5081641;28;19928;-81
2023/05/18 03:13:42;;;;;;;;;;;5.50;99.90;;;;;;5069456;28;19932;-82
2023/05/18 03:16:09;;;;;;;;;;;5.00;99.90;;;;;;5069936;28;19990;-82
2023/05/18 03:18:37;;;;;;;;;;;5.50;99.90;;;;;;5072267;28;19925;-82
2023/05/18 03:21:04;;;;;;;;;;;6.20;99.90;;;;;;5090135;28;19935;-82
2023/05/18 03:23:31;;;;;;;;;;;5.50;99.90;;;;;;5089806;28;19934;-82
2023/05/18 03:25:58;;;;;;;;;;;5.50;99.90;;;;;;5090399;28;19959;-81
2023/05/18 03:28:27;;;;;;;;;;;5.90;99.90;;;;;;5089512;28;19967;-82
2023/05/18 03:30:54;;;;;;;;;;;5.50;99.90;;;;;;5091378;28;19924;-82
2023/05/18 03:33:21;;;;;;;;;;;5.40;99.90;;;;;;5072078;28;19928;-82
2023/05/18 03:35:51;;;;;;;;;;;5.20;99.90;;;;;;5068926;28;19928;-81
2023/05/18 03:38:18;;;;;;;;;;;5.50;99.90;;;;;;5085165;28;19928;-83
2023/05/18 03:40:50;;;;;;;;;;;5.50;99.90;;;;;;5078419;28;20034;-84
2023/05/18 03:43:16;;;;;;;;;;;5.50;99.90;;;;;;5089884;28;20015;-84
2023/05/18 03:45:45;;;;;;;;;;;5.50;99.90;;;;;;5086516;28;19928;-84
2023/05/18 03:48:12;;;;;;;;;;;5.50;99.90;;;;;;5069440;28;20019;-85
2023/05/18 03:50:39;;;;;;;;;;;5.50;99.90;;;;;;5069791;28;20030;-84
2023/05/18 03:53:08;;;;;;;;;;;5.60;99.90;;;;;;5084876;28;19948;-85
2023/05/18 03:55:35;;;;;;;;;;;5.60;99.90;;;;;;5085058;28;19928;-85
2023/05/18 03:58:02;;;;;;;;;;;5.60;99.90;;;;;;5087352;28;19928;-85
2023/05/18 04:00:29;;;;;;;;;;;5.80;99.90;;;;;;5086454;28;19992;-84
2023/05/18 04:02:56;;;;;;;;;;;5.80;99.90;;;;;;5087529;28;19928;-84
2023/05/18 04:05:24;;;;;;;;;;;5.80;99.90;;;;;;5076898;28;19924;-83
2023/05/18 04:07:51;;;;;;;;;;;5.80;99.90;;;;;;5088413;28;20452;-84
2023/05/18 04:10:20;;;;;;;;;;;6.60;99.90;;;;;;5094508;28;19963;-84
2023/05/18 04:12:47;;;;;;;;;;;5.90;99.90;;;;;;5094871;28;19928;-84
2023/05/18 04:15:15;;;;;;;;;;;6.00;99.90;;;;;;5087722;28;19924;-85
2023/05/18 04:17:44;;;;;;;;;;;6.10;99.90;;;;;;5095342;28;19935;-85
2023/05/18 04:20:12;;;;;;;;;;;6.20;99.90;;;;;;5097257;28;19951;-85
2023/05/18 04:22:42;;;;;;;;;;;6.30;99.90;;;;;;5090746;28;19935;-85
2023/05/18 04:25:10;;;;;;;;;;;6.40;99.90;;;;;;5076689;28;20058;-84
2023/05/18 04:27:39;;;;;;;;;;;6.40;99.90;;;;;;5071329;28;20417;-86
2023/05/18 04:30:07;;;;;;;;;;;6.50;99.90;;;;;;5048823;28;19929;-87
2023/05/18 04:32:35;;;;;;;;;;;6.60;99.90;;;;;;5087728;28;19991;-86
2023/05/18 04:35:03;;;;;;;;;;;;;;;;;;5091026;28;19970;-86
2023/05/18 04:37:29;;;;;;;;;;;6.70;99.90;;;;;;5088414;28;20031;-86
2023/05/18 04:40:00;;;;;;;;;;;6.80;99.90;;;;;;5090247;28;19940;-86
2023/05/18 04:42:27;;;;;;;;;;;7.00;99.90;;;;;;5091548;28;20034;-86
2023/05/18 04:44:59;;;;;;;;;;;6.90;99.90;;;;;;5091239;28;20317;-85
2023/05/18 04:47:28;;;;;;;;;;;7.00;99.90;;;;;;5099999;28;19936;-85
2023/05/18 04:49:55;;;;;;;;;;;7.10;99.90;;;;;;5103151;28;19924;-84
2023/05/18 04:52:22;;;;;;;;;;;7.20;99.90;;;;;;5098455;28;19928;-85
2023/05/18 04:54:49;;;;;;;;;;;7.20;99.90;;;;;;5083558;28;19999;-82
2023/05/18 04:57:16;;;;;;;;;;;6.50;99.90;;;;;;5087669;28;20000;-83
2023/05/18 04:59:46;;;;;;;;;;;7.50;99.90;;;;;;5086608;28;19998;-83
2023/05/18 05:02:14;;;;;;;;;;;7.50;99.90;;;;;;5087437;28;20653;-83
2023/05/18 05:04:41;;;;;;;;;;;7.70;99.90;;;;;;5095366;28;19928;-84
2023/05/18 05:07:08;;;;;;;;;;;7.90;99.90;;;;;;5100973;28;20071;-84
2023/05/18 05:09:35;;;;;;;;;;;8.00;99.90;;;;;;5101475;28;19928;-84
2023/05/18 05:12:02;;;;;;;;;;;8.00;99.90;;;;;;5082649;28;19978;-84
2023/05/18 05:14:29;;;;;;;;;;;8.20;99.90;;;;;;5098836;28;19954;-84
2023/05/18 05:16:57;;;;;;;;;;;8.40;99.90;;;;;;5091255;28;19928;-82
2023/05/18 05:19:25;;;;;;;;;;;8.40;99.90;;;;;;5083104;28;20406;-83
2023/05/18 05:21:52;;;;;;;;;;;8.70;99.90;;;;;;5079901;28;19988;-83
2023/05/18 05:24:19;;;;;;;;;;;8.70;99.90;;;;;;5076707;28;19929;-83
2023/05/18 05:26:46;;;;;;;;;;;8.80;99.90;;;;;;5083908;28;19932;-83
2023/05/18 05:29:13;;;;;;;;;;;9.00;99.90;;;;;;5083509;28;19929;-85
2023/05/18 05:31:40;;;;;;;;;;;7.80;99.90;;;;;;5079218;28;19986;-85
2023/05/18 05:34:06;;;;;;;;;;;10.80;99.90;;;;;;5075943;28;19929;-85
2023/05/18 05:36:35;;;;;;;;;;;11.30;99.90;;;;;;5065871;28;20157;-85
2023/05/18 05:39:04;;;;;;;;;;;13.20;99.90;;;;;;5098533;28;20448;-86
2023/05/18 05:41:30;;;;;;;;;;;13.40;99.90;;;;;;5071572;28;20045;-86
2023/05/18 05:43:57;;;;;;;;;;;14.30;99.90;;;;;;5083667;28;19928;-87
2023/05/18 05:46:25;;;;;;;;;;;15.70;99.90;;;;;;5074870;28;19929;-85
2023/05/18 05:48:52;;;;;;;;;;;16.80;99.90;;;;;;5076643;28;19943;-85
2023/05/18 05:51:19;;;;;;;;;;;17.00;99.90;;;;;;5065874;28;19924;-87
2023/05/18 05:53:48;;;;;;;;;;;17.20;99.90;;;;;;5076655;28;19936;-87
2023/05/18 05:56:16;;;;;;;;;;;17.50;99.90;;;;;;5077714;28;19925;-85
2023/05/18 05:58:43;;;;;;;;;;;17.50;99.90;;;;;;5079843;28;19928;-87
2023/05/18 06:01:10;;;;;;;;;;;18.10;99.90;;;;;;5079656;28;19928;-85
2023/05/18 06:03:37;;;;;;;;;;;18.30;99.90;;;;;;5074311;28;20016;-86
2023/05/18 06:06:06;;;;;;;;;;;19.00;99.90;;;;;;5078529;28;19929;-86
2023/05/18 06:08:42;;;;;;;;;;;19.60;99.90;;;;;;5076739;28;20345;-85
2023/05/18 06:11:11;;;;;;;;;;;20.50;99.90;;;;;;5093400;28;20046;-85
2023/05/18 06:13:39;;;;;;;;;;;21.00;99.90;;;;;;5076468;28;20000;-86
2023/05/18 06:16:06;;;;;;;;;;;20.90;99.90;;;;;;5078223;28;19950;-87
2023/05/18 06:18:33;;;;;;;;;;;20.90;98.30;;;;;;5075308;28;20302;-86
2023/05/18 06:21:03;;;;;;;;;;;20.10;98.00;;;;;;5078973;28;19929;-87
2023/05/18 06:23:30;;;;;;;;;;;20.80;97.80;;;;;;5077414;28;19948;-88
2023/05/18 06:26:03;;;;;;;;;;;22.20;99.60;;;;;;5066906;28;19924;-87
2023/05/18 06:28:46;;;;;;;;;;;22.20;97.10;;;;;;5080482;28;20004;-86
2023/05/18 06:31:32;;;;;;;;;;;22.80;97.30;;;;;;5070664;28;20323;-88
2023/05/18 06:34:11;;;;;;;;;;;20.90;94.90;;;;;;5077941;28;19932;-87
2023/05/18 06:36:38;;;;;;;;;;;22.20;95.30;;;;;;5078443;28;19928;-86
2023/05/18 06:39:05;;;;;;;;;;;22.50;93.50;;;;;;5075452;28;19989;-87
2023/05/18 06:41:36;;;;;;;;;;;22.50;92.90;;;;;;5068961;28;19955;-87
2023/05/18 06:44:12;;;;;;;;;;;23.00;91.70;;;;;;5071414;28;19956;-86
2023/05/18 06:47:01;;;;;;;;;;;23.10;92.80;;;;;;5072429;28;19946;-85
2023/05/18 06:49:30;;;;;;;;;;;23.30;90.60;;;;;;5060831;28;20332;-85
2023/05/18 06:52:00;;;;;;;;;;;23.30;91.40;;;;;;5069174;28;19928;-84
2023/05/18 06:54:46;;;;;;;;;;;27.00;89.70;;;;;;5076073;28;19955;-86
2023/05/18 06:57:12;;;;;;;;;;;24.10;89.40;;;;;;5089322;28;19928;-86
2023/05/18 06:59:41;;;;;;;;;;;24.10;86.00;;;;;;5077957;28;19951;-87
2023/05/18 07:02:08;;;;;;;;;;;24.60;86.40;;;;;;5074104;28;19936;-87
2023/05/18 07:04:35;;;;;;;;;;;25.70;88.10;;;;;;5082106;28;19932;-87
2023/05/18 07:07:02;;;;;;;;;;;26.00;77.10;;;;;;5075780;28;19924;-84
2023/05/18 07:09:30;;;;;;;;;;;25.40;78.00;;;;;;5071955;28;20322;-84
2023/05/18 07:11:56;;;;;;;;;;;25.80;77.70;;;;;;5086469;28;19924;-84
2023/05/18 07:14:23;;;;;;;;;;;26.00;78.50;;;;;;5080706;28;19928;-84
2023/05/18 07:16:51;;;;;;;;;;;24.90;79.40;;;;;;5076716;28;19925;-85
2023/05/18 07:19:21;;;;;;;;;;;24.90;77.90;;;;;;5079597;28;19935;-86
2023/05/18 07:21:48;;;;;;;;;;;25.10;77.30;;;;;;5081327;28;19924;-84
2023/05/18 07:24:15;;;;;;;;;;;25.60;78.10;;;;;;5076304;28;19932;-84
2023/05/18 07:26:42;;;;;;;;;;;25.80;77.60;;;;;;5076964;28;19925;-85
2023/05/18 07:29:08;;;;;;;;;;;26.10;75.70;;;;;;5073354;28;20014;-84
2023/05/18 07:31:39;;;;;;;;;;;26.00;74.20;;;;;;5079826;28;19932;-84
2023/05/18 07:34:08;;;;;;;;;;;25.60;73.20;;;;;;5063727;28;20106;-85
2023/05/18 07:36:35;;;;;;;;;;;24.40;72.00;;;;;;5070999;28;19963;-83
2023/05/18 07:39:03;;;;;;;;;;;26.00;71.60;;;;;;5085814;28;20027;-84
2023/05/18 07:41:30;;;;;;;;;;;25.70;71.40;;;;;;5073909;28;19928;-83
2023/05/18 07:43:57;;;;;;;;;;;25.90;69.70;;;;;;5091379;28;19970;-83
2023/05/18 07:46:24;;;;;;;;;;;26.20;70.20;;;;;;5079199;28;19925;-83
2023/05/18 07:48:50;;;;;;;;;;;26.10;70.20;;;;;;5070069;28;19936;-84
2023/05/18 07:51:19;;;;;;;;;;;26.00;73.40;;;;;;5069869;28;20361;-83
2023/05/18 07:53:52;;;;;;;;;;;26.10;71.20;;;;;;5082117;28;19992;-85
2023/05/18 07:56:18;;;;;;;;;;;25.90;66.70;;;;;;5072533;28;19924;-82
2023/05/18 07:58:46;;;;;;;;;;;25.70;65.70;;;;;;5078844;28;19989;-83
2023/05/18 08:01:18;;;;;;;;;;;26.00;72.60;;;;;;5099503;28;19929;-83
2023/05/18 08:03:48;;;;;;;;;;;26.30;70.40;;;;;;5070450;28;19929;-84
2023/05/18 08:06:15;;;;;;;;;;;26.70;67.70;;;;;;5074984;28;19994;-83
2023/05/18 08:08:43;;;;;;;;;;;26.70;66.40;;;;;;5092759;28;19968;-83
2023/05/18 08:11:12;;;;;;;;;;;26.00;66.40;;;;;;5093139;28;19935;-84
2023/05/18 08:13:39;;;;;;;;;;;25.80;67.40;;;;;;5078181;28;19928;-84
2023/05/18 08:16:06;;;;;;;;;;;25.60;68.20;;;;;;5072597;28;19950;-84
2023/05/18 08:18:33;;;;;;;;;;;26.00;69.10;;;;;;5075666;28;20424;-83
2023/05/18 08:21:01;;;;;;;;;;;26.50;68.70;;;;;;5073199;28;19943;-83
2023/05/18 08:23:27;;;;;;;;;;;26.70;65.50;;;;;;5071496;28;19982;-83
2023/05/18 08:26:05;;;;;;;;;;;26.40;65.30;;;;;;5077995;28;19928;-84
2023/05/18 08:28:32;;;;;;;;;;;25.00;65.80;;;;;;5081827;28;20398;-83
2023/05/18 08:30:59;;;;;;;;;;;24.50;65.10;;;;;;5071768;28;20027;-83
2023/05/18 08:33:26;;;;;;;;;;;24.90;68.10;;;;;;5068050;28;20031;-83
2023/05/18 08:35:53;;;;;;;;;;;24.60;65.50;;;;;;5066469;28;19924;-83
2023/05/18 08:38:20;;;;;;;;;;;24.40;66.00;;;;;;5074627;28;19929;-82
2023/05/18 08:40:52;;;;;;;;;;;24.10;66.60;;;;;;5085313;28;19924;-83
2023/05/18 08:43:26;;;;;;;;;;;24.70;67.90;;;;;;5095145;28;20413;-84
2023/05/18 08:45:56;;;;;;;;;;;25.50;69.40;;;;;;5096738;28;19940;-84
2023/05/18 08:48:23;;;;;;;;;;;25.80;67.00;;;;;;5077626;28;19928;-86
2023/05/18 08:50:52;;;;;;;;;;;25.70;65.10;;;;;;5080044;28;19931;-84
2023/05/18 08:53:21;;;;;;;;;;;24.20;65.30;;;;;;5078158;28;19931;-83
2023/05/18 08:55:50;;;;;;;;;;;23.70;66.00;;;;;;5082542;28;19935;-86
2023/05/18 08:58:21;;;;;;;;;;;23.90;65.70;;;;;;5099920;28;19989;-84
2023/05/18 09:00:53;;;;;;;;;;;24.70;65.80;;;;;;5095559;28;19949;-84
2023/05/18 09:03:20;;;;;;;;;;;24.10;66.10;;;;;;5086879;28;19924;-84
2023/05/18 09:05:48;;;;;;;;;;;23.90;65.90;;;;;;5075629;28;20371;-82
2023/05/18 09:08:15;;;;;;;;;;;24.00;66.40;;;;;;5085512;28;19936;-84
2023/05/18 09:10:42;;;;;;;;;;;24.20;65.90;;;;;;5092437;28;20015;-83
2023/05/18 09:13:09;;;;;;;;;;;24.10;64.50;;;;;;5098489;28;19939;-83
2023/05/18 09:15:36;;;;;;;;;;;24.00;65.40;;;;;;5097455;28;20657;-83
2023/05/18 09:18:04;;;;;;;;;;;24.10;64.30;;;;;;5101015;28;19924;-84
2023/05/18 09:20:31;;;;;;;;;;;23.50;66.80;;;;;;5096241;28;19928;-83
2023/05/18 09:22:59;;;;;;;;;;;23.50;63.90;;;;;;5086431;28;19936;-84
2023/05/18 09:25:33;;;;;;;;;;;23.20;67.30;;;;;;5062955;28;19928;-84
2023/05/18 09:28:02;;;;;;;;;;;24.30;70.10;;;;;;5075513;28;19928;-84
2023/05/18 09:30:37;;;;;;;;;;;24.60;69.60;;;;;;5066873;28;20313;-85
2023/05/18 09:33:05;;;;;;;;;;;25.50;67.60;;;;;;5088169;28;19923;-83
2023/05/18 09:35:33;;;;;;;;;;;24.00;65.40;;;;;;5077349;28;19925;-84
2023/05/18 09:38:03;;;;;;;;;;;24.00;65.60;;;;;;5067867;28;19932;-84
2023/05/18 09:40:29;;;;;;;;;;;24.00;63.70;;;;;;5076373;28;19932;-84
2023/05/18 09:42:56;;;;;;;;;;;23.60;65.40;;;;;;5083266;28;19928;-83
2023/05/18 09:45:24;;;;;;;;;;;23.30;63.60;;;;;;5075644;28;20082;-85
2023/05/18 09:47:52;;;;;;;;;;;23.00;65.10;;;;;;5073995;28;19929;-85
2023/05/18 09:50:20;;;;;;;;;;;23.00;64.60;;;;;;5077471;28;19936;-83
2023/05/18 09:52:48;;;;;;;;;;;20.90;65.00;;;;;;5078996;28;20002;-84
2023/05/18 09:55:15;;;;;;;;;;;;;;;;;;5077708;28;19987;-84
2023/05/18 09:57:42;;;;;;;;;;;;;;;;;;5077199;28;19928;-84
2023/05/18 10:00:11;;;;;;;;;;;;;;;;;;5075899;28;19940;-84
2023/05/18 10:02:38;;;;;;;;;;;;;;;;;;5073493;28;19932;-83
2023/05/18 10:05:05;;;;;;;;;;;;;;;;;;5075084;28;20043;-84
2023/05/18 10:07:34;;;;;;;;;;;17.30;69.00;;;;;;5082093;28;19959;-86
2023/05/18 10:10:02;;;;;;;;;;;16.90;70.00;;;;;;5095665;28;19931;-82
2023/05/18 10:12:29;;;;;;;;;;;;;;;;;;5086924;28;19924;-83
2023/05/18 10:14:56;;;;;;;;;;;;;;;;;;5085220;28;19986;-82
2023/05/18 10:17:24;;;;;;;;;;;;;;;;;;5082317;28;19932;-83
2023/05/18 10:19:52;;;;;;;;;;;16.40;73.30;;;;;;5092253;28;19935;-84
2023/05/18 10:22:22;;;;;;;;;;;16.10;72.90;;;;;;5093912;28;19912;-82
2023/05/18 10:24:51;;;;;;;;;;;16.10;73.60;;;;;;5083908;28;19947;-83
2023/05/18 10:27:27;;;;;;;;;;;16.40;74.40;;;;;;5090311;28;19939;-83
2023/05/18 10:29:54;;;;;;;;;;;;;;;;;;5093058;28;19913;-82
2023/05/18 10:32:21;;;;;;;;;;;;;;;;;;5094141;28;19916;-81
2023/05/18 10:34:48;;;;;;;;;;;;;;;;;;5095964;28;19912;-83
2023/05/18 10:37:15;;;;;;;;;;;;;;;;;;5100236;28;19919;-82
2023/05/18 10:39:44;;;;;;;;;;;;;;;;;;5102358;28;19928;-82
2023/05/18 10:42:13;;;;;;;;;;;17.30;73.40;;;;;;5115051;28;19912;-83
2023/05/18 10:44:40;;;;;;;;;;;17.10;73.30;;;;;;5111462;28;20463;-83
2023/05/18 10:47:07;;;;;;;;;;;;;;;;;;5089481;28;20007;-83
2023/05/18 10:49:35;;;;;;;;;;;;;;;;;;5072897;28;19924;-84
2023/05/18 10:52:02;;;;;;;;;;;16.70;74.70;;;;;;5079500;28;20499;-83
2023/05/18 10:54:30;;;;;;;;;;;;;;;;;;5071799;28;19925;-83
2023/05/18 10:56:57;;;;;;;;;;;;;;;;;;5069089;28;20342;-82
2023/05/18 10:59:26;;;;;;;;;;;16.90;75.00;;;;;;5073248;28;19982;-82
2023/05/18 11:01:54;;;;;;;;;;;16.80;74.90;;;;;;5068704;28;19924;-80
2023/05/18 11:04:21;;;;;;;;;;;;;;;;;;5081938;28;19982;-81
2023/05/18 11:06:53;;;;;;;;;;;17.10;75.30;;;;;;5073127;28;19935;-82
2023/05/18 11:09:23;;;;;;;;;;;17.30;75.50;;;;;;5076324;28;19932;-82
2023/05/18 11:11:54;;;;;;;;;;;;;;;;;;5079869;28;19946;-82
2023/05/18 11:14:22;;;;;;;;;;;;;;;;;;5061645;28;19929;-83
2023/05/18 11:16:52;;;;;;;;;;;;;;;;;;5073349;28;19954;-83
2023/05/18 11:19:26;;;;;;;;;;;18.00;75.20;;;;;;5075916;28;20505;-81
2023/05/18 11:21:58;;;;;;;;;;;17.80;73.50;;;;;;5088598;28;20139;-81
2023/05/18 11:24:25;;;;;;;;;;;17.80;75.00;;;;;;5096607;28;19923;-82
2023/05/18 11:26:52;;;;;;;;;;;;;;;;;;5094865;28;19988;-82
2023/05/18 11:29:19;;;;;;;;;;;;;;;;;;5090724;28;19912;-81
2023/05/18 11:31:46;;;;;;;;;;;;;;;;;;5092754;28;19927;-80
2023/05/18 11:34:35;;;;;;;;;;;17.20;75.50;;;;;;5095125;28;19928;-80
2023/05/18 11:37:04;;;;;;;;;;;;;;;;;;5088718;28;19936;-81
2023/05/18 11:39:31;;;;;;;;;;;;;;;;;;5111703;28;19923;-80
2023/05/18 11:41:58;;;;;;;;;;;;;;;;;;5100732;28;19928;-81
2023/05/18 11:44:25;;;;;;;;;;;;;;;;;;5086585;28;20015;-81
2023/05/18 11:46:52;;;;;;;;;;;;;;;;;;5091798;28;19924;-81
2023/05/18 11:49:19;;;;;;;;;;;;;;;;;;5107674;28;19913;-80
2023/05/18 11:51:47;;;;;;;;;;;;;;;;;;5095549;28;20030;-82
2023/05/18 11:54:17;;;;;;;;;;;17.30;76.00;;;;;;5094504;28;19924;-81
2023/05/18 11:56:45;;;;;;;;;;;17.20;75.30;;;;;;5094322;28;19917;-81
2023/05/18 11:59:12;;;;;;;;;;;16.70;75.60;;;;;;5092620;28;19919;-81
2023/05/18 12:01:41;;;;;;;;;;;17.20;76.30;;;;;;5090957;28;19936;-80
2023/05/18 12:04:08;;;;;;;;;;;;;;;;;;5092242;28;19948;-80
2023/05/18 12:06:35;;;;;;;;;;;;;;;;;;5075589;28;19931;-82
2023/05/18 12:09:02;;;;;;;;;;;;;;;;;;5076366;28;19939;-81
2023/05/18 12:11:30;;;;;;;;;;;17.60;75.80;;;;;;5089868;28;19924;-81
2023/05/18 12:13:57;;;;;;;;;;;;;;;;;;5094355;28;19932;-81
2023/05/18 12:16:24;;;;;;;;;;;;;;;;;;5096493;28;19924;-81
2023/05/18 12:18:52;;;;;;;;;;;;;;;;;;5076242;28;19929;-80
2023/05/18 12:21:19;;;;;;;;;;;;;;;;;;5078613;28;19931;-81
2023/05/18 12:23:46;;;;;;;;;;;;;;;;;;5082156;28;19928;-81
2023/05/18 12:26:13;;;;;;;;;;;18.20;76.50;;;;;;5082599;28;19975;-81
2023/05/18 12:28:41;;;;;;;;;;;18.20;76.10;;;;;;5085769;28;19962;-81
2023/05/18 12:31:08;;;;;;;;;;;18.50;75.50;;;;;;5086636;28;20532;-80
2023/05/18 12:33:35;;;;;;;;;;;;;;;;;;5097088;28;19995;-81
2023/05/18 12:36:02;;;;;;;;;;;;;;;;;;5065289;28;19996;-81
2023/05/18 12:38:28;;;;;;;;;;;18.70;74.90;;;;;;5079559;28;19928;-81
2023/05/18 12:40:56;;;;;;;;;;;;;;;;;;5085901;28;19928;-80
2023/05/18 12:43:25;;;;;;;;;;;19.00;75.00;;;;;;5075229;28;20019;-80
2023/05/18 12:45:53;;;;;;;;;;;18.80;74.20;;;;;;5063610;28;20019;-80
2023/05/18 12:48:25;;;;;;;;;;;18.60;73.20;;;;;;5071806;28;19932;-80
2023/05/18 12:50:52;;;;;;;;;;;;;;;;;;5072036;28;19940;-81
2023/05/18 12:53:19;;;;;;;;;;;;;;;;;;5071846;28;19927;-81
2023/05/18 12:55:55;;;;;;;;;;;19.00;73.50;;;;;;5095247;28;19928;-81
2023/05/18 12:58:22;;;;;;;;;;;19.20;73.50;;;;;;5082786;28;19935;-80
2023/05/18 13:00:49;;;;;;;;;;;;;;;;;;5069679;28;19928;-81
2023/05/18 13:03:18;;;;;;;;;;;19.00;74.00;;;;;;5086946;28;19928;-82
2023/05/18 13:05:46;;;;;;;;;;;;;;;;;;5074162;28;19925;-80
2023/05/18 13:08:13;;;;;;;;;;;;;;;;;;5078097;28;19954;-82
2023/05/18 13:10:42;;;;;;;;;;;;;;;;;;5080638;28;19940;-81
2023/05/18 13:13:09;;;;;;;;;;;;;;;;;;5086009;28;19928;-81
2023/05/18 13:15:36;;;;;;;;;;;;;;;;;;5098585;28;20358;-81
2023/05/18 13:18:03;;;;;;;;;;;;;;;;;;5080870;28;20019;-81
2023/05/18 13:20:31;;;;;;;;;;;;;;;;;;5088783;28;19956;-79
2023/05/18 13:22:58;;;;;;;;;;;;;;;;;;5085824;28;19929;-82
2023/05/18 13:25:26;;;;;;;;;;;19.10;74.00;;;;;;5081530;28;19924;-82
2023/05/18 13:27:59;;;;;;;;;;;19.00;73.30;;;;;;5076350;28;19928;-82
2023/05/18 13:30:26;;;;;;;;;;;18.70;74.30;;;;;;5075714;28;20429;-81
2023/05/18 13:32:52;;;;;;;;;;;19.10;75.50;;;;;;5080015;28;20034;-81
2023/05/18 13:35:19;;;;;;;;;;;;;;;;;;5100967;28;19928;-81
2023/05/18 13:37:47;;;;;;;;;;;;;;;;;;5099094;28;19928;-82
2023/05/18 13:40:14;;;;;;;;;;;19.30;72.80;;;;;;5093887;28;19933;-81
2023/05/18 13:42:45;;;;;;;;;;;19.40;74.10;;;;;;5091018;28;19924;-80
2023/05/18 13:45:11;;;;;;;;;;;19.60;73.80;;;;;;5095206;28;19924;-81
2023/05/18 13:47:38;;;;;;;;;;;;;;;;;;5078553;28;20011;-81
2023/05/18 13:50:05;;;;;;;;;;;;;;;;;;5077480;28;19943;-81
2023/05/18 13:52:32;;;;;;;;;;;;;;;;;;5077371;28;20654;-81
2023/05/18 13:54:59;;;;;;;;;;;;;;;;;;5076662;28;20031;-79
2023/05/18 13:57:26;;;;;;;;;;;19.50;73.40;;;;;;5076003;28;19956;-81
2023/05/18 13:59:53;;;;;;;;;;;;;;;;;;5076543;28;19939;-81
2023/05/18 14:02:21;;;;;;;;;;;;;;;;;;5085975;28;19924;-81
2023/05/18 14:04:48;;;;;;;;;;;;;;;;;;5098565;28;20422;-81
2023/05/18 14:07:15;;;;;;;;;;;;;;;;;;5097948;28;19955;-81
2023/05/18 14:09:42;;;;;;;;;;;;;;;;;;5093445;28;19970;-82
2023/05/18 14:12:09;;;;;;;;;;;;;;;;;;5090947;28;19924;-80
2023/05/18 14:14:39;;;;;;;;;;;19.20;74.20;;;;;;5094112;28;20024;-80
2023/05/18 14:17:06;;;;;;;;;;;;;;;;;;5084791;28;19964;-81
2023/05/18 14:19:34;;;;;;;;;;;;;;;;;;5094025;28;19935;-82
2023/05/18 14:22:01;;;;;;;;;;;19.20;73.80;;;;;;5098544;28;20440;-82
2023/05/18 14:24:28;;;;;;;;;;;19.40;74.60;;;;;;5099858;28;19931;-82
2023/05/18 14:26:55;;;;;;;;;;;;;;;;;;5091145;28;19924;-82
2023/05/18 14:29:22;;;;;;;;;;;19.80;73.40;;;;;;5077906;28;19931;-82
2023/05/18 14:31:50;;;;;;;;;;;;;;;;;;5091512;28;19928;-82
2023/05/18 14:34:19;;;;;;;;;;;19.40;73.00;;;;;;5101197;28;19928;-82
2023/05/18 14:36:45;;;;;;;;;;;19.50;73.90;;;;;;5096386;28;19928;-82
2023/05/18 14:39:12;;;;;;;;;;;19.60;73.50;;;;;;5101140;28;19928;-84
2023/05/18 14:41:39;;;;;;;;;;;;;;;;;;5092056;28;19955;-82
2023/05/18 14:44:08;;;;;;;;;;;;;;;;;;5106159;28;19939;-82
2023/05/18 14:46:35;;;;;;;;;;;;;;;;;;5106197;28;19938;-81
2023/05/18 14:49:02;;;;;;;;;;;19.60;73.10;;;;;;5097028;28;19944;-82
2023/05/18 14:51:29;;;;;;;;;;;;;;;;;;5081847;28;19928;-82
2023/05/18 14:53:56;;;;;;;;;;;;;;;;;;5088123;28;20430;-82
2023/05/18 14:56:23;;;;;;;;;;;;;;;;;;5078834;28;19935;-82
2023/05/18 14:58:51;;;;;;;;;;;19.20;73.50;;;;;;5078686;28;19982;-82
2023/05/18 15:01:18;;;;;;;;;;;;;;;;;;5098922;28;19928;-82
2023/05/18 15:03:45;;;;;;;;;;;19.40;73.80;;;;;;5102191;28;19950;-82
2023/05/18 15:06:12;;;;;;;;;;;;;;;;;;5104648;28;19928;-81